Scf Baltica — A8IA5 — position and weather

sailwx.info

Track history (hours):
 
Tides and Currents Weather Stations Pressure Air Temp Water Temp Dewpoint Dewpoint Depression Visibility Wind Speed Wind Dir Waves Ship Positions

Scf Baltica

Last reported at 2018-Apr-24 08:22 UTC. Time now 2018-Apr-24 08:33 UTC.
Position N 56°16' E 017°16'.

Length 250 m; draft 8.9 m.

Type: Ship. MMSI: 636012813.

Date/timePositionNaut miles runAvg speedWind from/ knotsBaromVisibWave heightAir tempDewpointWater temp
2018-Apr-24 08:22N 56°16' E 017°16'410.0
2018-Apr-24 08:00N 56°14' E 017°11'610.0
2018-Apr-24 07:24N 56°10' E 017°03'4 9.9
2018-Apr-24 07:00N 56°07' E 016°57'5 9.8
2018-Apr-24 06:30N 56°04' E 016°50'510.0
2018-Apr-24 06:00N 56°02' E 016°43'510.1
2018-Apr-24 05:30N 55°59' E 016°35'510.2
2018-Apr-24 05:00N 55°56' E 016°27'510.0
2018-Apr-24 04:30N 55°54' E 016°20'5 9.9
2018-Apr-24 04:00N 55°51' E 016°12'510.0
2018-Apr-24 03:30N 55°49' E 016°05'510.0
2018-Apr-24 03:00N 55°46' E 015°57'510.1
2018-Apr-24 02:30N 55°43' E 015°49'510.2
2018-Apr-24 02:00N 55°41' E 015°41'5 9.9
2018-Apr-24 01:31N 55°38' E 015°34'5 9.9
2018-Apr-24 01:00N 55°36' E 015°26'5 9.8
2018-Apr-24 00:30N 55°34' E 015°18'5 9.8
2018-Apr-24 00:00N 55°32' E 015°11'5 9.6
2018-Apr-23 23:30N 55°30' E 015°03'5 9.6
2018-Apr-23 23:00N 55°28' E 014°55'5 9.7
2018-Apr-23 22:30N 55°26' E 014°48'5 9.8
2018-Apr-23 22:00N 55°23' E 014°40'5 9.8
2018-Apr-23 21:30N 55°20' E 014°35'5 9.5
2018-Apr-23 21:00N 55°16' E 014°29'5 9.6
2018-Apr-23 20:30N 55°12' E 014°24'5 9.7
2018-Apr-23 20:00N 55°08' E 014°18'5 9.8
2018-Apr-23 19:30N 55°05' E 014°13'5 9.5
2018-Apr-23 18:56N 55°01' E 014°06'1710.0
2018-Apr-23 17:12N 54°55' E 013°38'34 9.8
2018-Apr-23 13:43N 54°44' E 012°42'2410.7
2018-Apr-23 11:30N 54°27' E 012°12'612.1
2018-Apr-23 11:01N 54°25' E 012°03'714.0
2018-Apr-23 10:30N 54°25' E 011°51'713.5
2018-Apr-23 10:00N 54°27' E 011°40'714.3
2018-Apr-23 09:30N 54°30' E 011°29'713.9
2018-Apr-23 09:00N 54°33' E 011°18'713.7
2018-Apr-23 08:31N 54°36' E 011°08'713.6
2018-Apr-23 08:00N 54°40' E 010°58'611.8
2018-Apr-23 07:30N 54°44' E 010°51'510.8
2018-Apr-23 07:00N 54°50' E 010°51'611.8
2018-Apr-23 06:30N 54°55' E 010°54'611.2
2018-Apr-23 06:01N 54°59' E 011°00'612.7
2018-Apr-23 05:30N 55°06' E 011°02'612.0
2018-Apr-23 05:01N 55°11' E 011°05'612.1
2018-Apr-23 04:29N 55°18' E 011°03'45 9.8
2018-Apr-22 23:52N 56°03' E 011°06'11 9.7
2018-Apr-22 22:47N 56°11' E 011°17'3 9.1
2018-Apr-22 22:30N 56°14' E 011°19'5 8.9
2018-Apr-22 21:56N 56°18' E 011°23'16 9.2
2018-Apr-22 20:08N 56°32' E 011°38'2 8.8
2018-Apr-22 19:54N 56°34' E 011°40'4 9.1
2018-Apr-22 19:31N 56°37' E 011°44'5 9.3
2018-Apr-22 19:01N 56°41' E 011°48'5 9.0
2018-Apr-22 18:30N 56°45' E 011°52'5 9.1
2018-Apr-22 18:00N 56°49' E 011°50'4 9.0
2018-Apr-22 17:31N 56°54' E 011°47'4 8.9
2018-Apr-22 17:00N 56°58' E 011°44'4 8.5
2018-Apr-22 16:30N 57°02' E 011°42'4 8.3
2018-Apr-22 16:01N 57°06' E 011°39'4 8.4
2018-Apr-22 15:30N 57°10' E 011°36'5 8.7
2018-Apr-22 14:59N 57°14' E 011°33'4 9.0
2018-Apr-22 14:30N 57°18' E 011°31'4 8.9
2018-Apr-22 14:01N 57°22' E 011°28'4 8.8
2018-Apr-22 13:30N 57°26' E 011°25'4 8.5
2018-Apr-22 13:01N 57°30' E 011°20'4 8.6
2018-Apr-22 12:30N 57°33' E 011°14'3 5.5
2018-Apr-22 12:01N 57°34' E 011°11'3 5.2
2018-Apr-22 11:31N 57°36' E 011°07'3 5.3
2018-Apr-22 11:01N 57°38' E 011°03'3 5.4
2018-Apr-22 10:31N 57°40' E 010°59'3 6.0
2018-Apr-22 10:01N 57°42' E 010°55'3 6.1
2018-Apr-22 09:31N 57°44' E 010°51'3 6.8
2018-Apr-22 09:00N 57°46' E 010°47'3 6.7
2018-Apr-22 08:30N 57°47' E 010°41'3 6.0
2018-Apr-22 08:00N 57°47' E 010°35'3 6.2
2018-Apr-22 07:30N 57°48' E 010°29'510.7
2018-Apr-22 07:00N 57°48' E 010°19'814.9
2018-Apr-22 06:29N 57°48' E 010°05'714.0
2018-Apr-22 06:00N 57°47' E 009°52'510.5
2018-Apr-22 05:30N 57°45' E 009°43'510.3
2018-Apr-22 04:59N 57°44' E 009°34'1010.2
2018-Apr-22 04:02N 57°40' E 009°17'1510.5
2018-Apr-22 02:39N 57°36' E 008°50'144 8.5
2018-Apr-21 09:47N 55°40' E 006°17'2 7.4
2018-Apr-21 09:29N 55°38' E 006°15'5 9.7
2018-Apr-21 08:57N 55°33' E 006°10'4 9.7
2018-Apr-21 08:30N 55°30' E 006°06'510.0
2018-Apr-21 08:00N 55°25' E 006°01'713.5
2018-Apr-21 07:30N 55°20' E 005°55'96 9.8
2018-Apr-20 21:40N 53°55' E 004°36'310.0
2018-Apr-20 21:24N 53°53' E 004°33'3010.1
2018-Apr-20 18:28N 53°34' E 003°55'6 9.9
2018-Apr-20 17:50N 53°31' E 003°46'710.1
2018-Apr-20 17:09N 53°24' E 003°41'33 9.5
2018-Apr-20 13:41N 52°54' E 003°20'2 9.0
2018-Apr-20 13:30N 52°52' E 003°19'6 8.9
2018-Apr-20 12:51N 52°47' E 003°14'4 8.6
2018-Apr-20 12:24N 52°44' E 003°11'4 8.3
2018-Apr-20 11:52N 52°40' E 003°09'8 8.2
2018-Apr-20 10:51N 52°31' E 003°09'3 8.3
2018-Apr-20 10:30N 52°28' E 003°09'4 8.5
2018-Apr-20 10:00N 52°24' E 003°09'4 8.8
2018-Apr-20 09:31N 52°20' E 003°09'4 8.0
2018-Apr-20 08:59N 52°16' E 003°12'4 9.5
2018-Apr-20 08:30N 52°14' E 003°18'5 9.6
2018-Apr-20 07:59N 52°11' E 003°25'5 9.9
2018-Apr-20 07:29N 52°09' E 003°32'5 9.8
2018-Apr-20 07:00N 52°06' E 003°39'5 9.4
2018-Apr-20 06:31N 52°04' E 003°45'4 8.7
2018-Apr-20 06:00N 52°03' E 003°52'4 8.8
2018-Apr-20 05:31N 52°01' E 003°59'5 9.9
2018-Apr-20 05:01N 51°58' E 004°05'1 1.1
2018-Apr-20 04:29N 51°58' E 004°04'0 0.0
2018-Apr-20 03:59N 51°58' E 004°04'0 0.0
2018-Apr-20 03:29N 51°58' E 004°04'0 0.0
2018-Apr-20 02:59N 51°58' E 004°04'0 0.0
2018-Apr-20 02:29N 51°58' E 004°04'0 0.0
2018-Apr-20 01:59N 51°58' E 004°04'0 0.0
2018-Apr-20 01:29N 51°58' E 004°04'0 0.0
2018-Apr-20 00:59N 51°58' E 004°04'0 0.0
2018-Apr-20 00:29N 51°58' E 004°04'0 0.0
2018-Apr-19 23:59N 51°58' E 004°04'0 0.0
2018-Apr-19 23:23N 51°58' E 004°04'0 0.0
2018-Apr-19 22:59N 51°58' E 004°04'0 0.0
2018-Apr-19 22:26N 51°58' E 004°04'0 0.0
2018-Apr-19 21:59N 51°58' E 004°04'0 0.0
2018-Apr-19 21:26N 51°58' E 004°04'0 0.0
2018-Apr-19 20:59N 51°58' E 004°04'0 0.0
2018-Apr-19 20:29N 51°58' E 004°04'0 0.0
2018-Apr-19 19:59N 51°58' E 004°04'0 0.0
2018-Apr-19 19:29N 51°58' E 004°04'0 0.0
2018-Apr-19 18:53N 51°58' E 004°04'0 0.0
2018-Apr-19 18:29N 51°58' E 004°04'0 0.0
2018-Apr-19 17:59N 51°58' E 004°04'0 0.0
2018-Apr-19 17:26N 51°58' E 004°04'0 0.0
2018-Apr-19 16:59N 51°58' E 004°04'0 0.0
2018-Apr-19 16:29N 51°58' E 004°04'0 0.0
2018-Apr-19 15:59N 51°58' E 004°04'0 0.0
2018-Apr-19 15:29N 51°58' E 004°04'0 0.0
2018-Apr-19 14:56N 51°58' E 004°04'0 0.0
2018-Apr-19 14:29N 51°58' E 004°04'0 0.0
2018-Apr-19 13:56N 51°58' E 004°04'0 0.0
2018-Apr-19 13:29N 51°58' E 004°04'0 0.0
2018-Apr-19 12:59N 51°58' E 004°04'0 0.0
2018-Apr-19 12:29N 51°58' E 004°04'0 0.0
2018-Apr-19 11:56N 51°58' E 004°04'0 0.0
2018-Apr-19 11:29N 51°58' E 004°04'0 0.0
2018-Apr-19 10:59N 51°58' E 004°04'0 0.0
2018-Apr-19 10:29N 51°58' E 004°04'0 0.0
2018-Apr-19 09:59N 51°58' E 004°04'0 0.0
2018-Apr-19 09:29N 51°58' E 004°04'0 0.0
2018-Apr-19 08:59N 51°58' E 004°04'0 0.0
2018-Apr-19 08:29N 51°58' E 004°04'0 0.0
2018-Apr-19 07:59N 51°58' E 004°04'0 0.0
2018-Apr-19 07:26N 51°58' E 004°04'0 0.0
2018-Apr-19 06:59N 51°58' E 004°04'0 0.0
2018-Apr-19 06:29N 51°58' E 004°04'0 0.0
2018-Apr-19 05:59N 51°58' E 004°04'0 0.0
2018-Apr-19 05:29N 51°58' E 004°04'0 0.0
2018-Apr-19 04:56N 51°58' E 004°04'0 0.0
2018-Apr-19 04:29N 51°58' E 004°04'0 0.0
2018-Apr-19 03:59N 51°58' E 004°04'0 0.0
2018-Apr-19 03:29N 51°58' E 004°04'0 0.0
2018-Apr-19 02:59N 51°58' E 004°04'0 0.0
2018-Apr-19 02:29N 51°58' E 004°04'0 0.0
2018-Apr-19 01:59N 51°58' E 004°04'0 0.0
2018-Apr-19 01:26N 51°58' E 004°04'0 0.0
2018-Apr-19 00:59N 51°58' E 004°04'0 0.0
2018-Apr-19 00:29N 51°58' E 004°04'0 0.1
2018-Apr-19 00:00N 51°58' E 004°04'1 1.3
2018-Apr-18 23:30N 51°59' E 004°05'4 7.8
2018-Apr-18 23:00N 52°00' E 003°59'510.1
2018-Apr-18 22:30N 51°60' E 003°51'4 7.6
2018-Apr-18 22:00N 52°01' E 003°45'611.8
2018-Apr-18 21:30N 52°05' E 003°37'612.1
2018-Apr-18 20:59N 52°08' E 003°29'712.4
2018-Apr-18 20:26N 52°11' E 003°19'612.5
2018-Apr-18 19:59N 52°15' E 003°12'1011.8
2018-Apr-18 19:07N 52°25' E 003°09'612.0
2018-Apr-18 18:36N 52°31' E 003°09'211.7
2018-Apr-18 18:28N 52°32' E 003°09'511.4
2018-Apr-18 18:00N 52°38' E 003°09'811.3
2018-Apr-18 17:16N 52°46' E 003°09'310.6
2018-Apr-18 17:00N 52°49' E 003°10'710.9
2018-Apr-18 16:21N 52°55' E 003°15'23811.8
2018-Apr-17 20:13N 56°22' E 006°36'311.7
2018-Apr-17 20:00N 56°25' E 006°38'611.7
2018-Apr-17 19:29N 56°30' E 006°43'611.7
2018-Apr-17 18:56N 56°36' E 006°48'13211.2
2018-Apr-17 07:14N 57°51' E 010°09'612.6
2018-Apr-17 06:45N 57°51' E 010°20'412.4
2018-Apr-17 06:24N 57°51' E 010°28'512.3
2018-Apr-17 06:00N 57°50' E 010°37'511.0
2018-Apr-17 05:30N 57°48' E 010°46'4 7.7
2018-Apr-17 05:00N 57°45' E 010°51'510.9
2018-Apr-17 04:30N 57°41' E 010°59'611.8
2018-Apr-17 04:00N 57°37' E 011°07'612.0
2018-Apr-17 03:30N 57°33' E 011°15'612.0
2018-Apr-17 03:00N 57°29' E 011°24'612.1
2018-Apr-17 02:30N 57°24' E 011°28'612.7
2018-Apr-17 02:00N 57°18' E 011°32'612.7
2018-Apr-17 01:30N 57°12' E 011°36'612.5
2018-Apr-17 01:00N 57°06' E 011°40'10610.6
2018-Apr-16 15:00N 55°22' E 011°02'611.8
2018-Apr-16 14:30N 55°17' E 011°04'510.2
2018-Apr-16 14:00N 55°11' E 011°04'511.0
2018-Apr-16 13:30N 55°07' E 010°59'611.6
2018-Apr-16 13:00N 55°01' E 010°59'510.9
2018-Apr-16 12:30N 54°57' E 010°54'611.5
2018-Apr-16 12:00N 54°51' E 010°50'611.7
2018-Apr-16 11:30N 54°45' E 010°48'510.6
2018-Apr-16 11:00N 54°40' E 010°48'612.2
2018-Apr-16 10:30N 54°37' E 010°57'611.7
2018-Apr-16 10:00N 54°36' E 011°07'612.3
2018-Apr-16 09:30N 54°34' E 011°17'612.5
2018-Apr-16 09:00N 54°31' E 011°27'712.6
2018-Apr-16 08:28N 54°28' E 011°38'612.2
2018-Apr-16 08:00N 54°26' E 011°47'712.4
2018-Apr-16 07:28N 54°27' E 011°58'612.2
2018-Apr-16 07:00N 54°27' E 012°08'510.2
2018-Apr-16 06:30N 54°31' E 012°13'810.9
2018-Apr-16 05:46N 54°38' E 012°20'2 9.5
2018-Apr-16 05:30N 54°39' E 012°23'16 5.3
2018-Apr-16 02:26N 54°47' E 012°47'25 9.8
2018-Apr-15 23:51N 54°56' E 013°28'711.9
2018-Apr-15 23:17N 54°59' E 013°40'1312.0
2018-Apr-15 22:10N 55°03' E 014°02'212.0
2018-Apr-15 22:00N 55°04' E 014°05'912.3
2018-Apr-15 21:17N 55°11' E 014°14'312.4
2018-Apr-15 21:00N 55°14' E 014°18'612.4
2018-Apr-15 20:30N 55°19' E 014°25'612.6
2018-Apr-15 20:00N 55°24' E 014°32'612.0
2018-Apr-15 19:28N 55°28' E 014°40'612.2
2018-Apr-15 19:00N 55°31' E 014°49'612.2
2018-Apr-15 18:30N 55°33' E 014°59'612.4
2018-Apr-15 18:00N 55°36' E 015°08'612.5
2018-Apr-15 17:30N 55°38' E 015°19'612.5
2018-Apr-15 17:00N 55°40' E 015°29'612.6
2018-Apr-15 16:30N 55°41' E 015°40'612.3
2018-Apr-15 16:00N 55°43' E 015°51'612.3
2018-Apr-15 15:30N 55°44' E 016°02'612.3
2018-Apr-15 15:00N 55°46' E 016°12'612.3
2018-Apr-15 14:30N 55°47' E 016°23'612.4
2018-Apr-15 14:00N 55°49' E 016°34'812.4
2018-Apr-15 13:24N 55°51' E 016°47'512.4
2018-Apr-15 13:00N 55°52' E 016°55'28212.0
2018-Apr-14 13:26N 59°29' E 022°30'1512.4
2018-Apr-14 12:12N 59°34' E 022°59'612.5
2018-Apr-14 11:45N 59°36' E 023°09'312.6
2018-Apr-14 11:31N 59°37' E 023°15'612.5
2018-Apr-14 11:01N 59°38' E 023°27'612.4
2018-Apr-14 10:31N 59°40' E 023°39'612.5
2018-Apr-14 10:00N 59°42' E 023°51'612.5
2018-Apr-14 09:31N 59°44' E 024°02'812.5
2018-Apr-14 08:51N 59°46' E 024°18'412.6
2018-Apr-14 08:30N 59°47' E 024°26'  
Track history (hours):
 
Tides and Currents Weather Stations Pressure Air Temp Water Temp Dewpoint Dewpoint Depression Visibility Wind Speed Wind Dir Waves Ship Positions

Scf Baltica

Last reported at 2018-Apr-24 08:22 UTC. Time now 2018-Apr-24 08:33 UTC.
Position N 56°16' E 017°16'.

Length 250 m; draft 8.9 m.

Type: Ship. MMSI: 636012813.

Date/timePositionNaut miles runAvg speedWind from/ knotsBaromVisibWave heightAir tempDewpointWater temp
2018-Apr-24 08:22N 56°16' E 017°16'410.0
2018-Apr-24 08:00N 56°14' E 017°11'610.0
2018-Apr-24 07:24N 56°10' E 017°03'4 9.9
2018-Apr-24 07:00N 56°07' E 016°57'5 9.8
2018-Apr-24 06:30N 56°04' E 016°50'510.0
2018-Apr-24 06:00N 56°02' E 016°43'510.1
2018-Apr-24 05:30N 55°59' E 016°35'510.2
2018-Apr-24 05:00N 55°56' E 016°27'510.0
2018-Apr-24 04:30N 55°54' E 016°20'5 9.9
2018-Apr-24 04:00N 55°51' E 016°12'510.0
2018-Apr-24 03:30N 55°49' E 016°05'510.0
2018-Apr-24 03:00N 55°46' E 015°57'510.1
2018-Apr-24 02:30N 55°43' E 015°49'510.2
2018-Apr-24 02:00N 55°41' E 015°41'5 9.9
2018-Apr-24 01:31N 55°38' E 015°34'5 9.9
2018-Apr-24 01:00N 55°36' E 015°26'5 9.8
2018-Apr-24 00:30N 55°34' E 015°18'5 9.8
2018-Apr-24 00:00N 55°32' E 015°11'5 9.6
2018-Apr-23 23:30N 55°30' E 015°03'5 9.6
2018-Apr-23 23:00N 55°28' E 014°55'5 9.7
2018-Apr-23 22:30N 55°26' E 014°48'5 9.8
2018-Apr-23 22:00N 55°23' E 014°40'5 9.8
2018-Apr-23 21:30N 55°20' E 014°35'5 9.5
2018-Apr-23 21:00N 55°16' E 014°29'5 9.6
2018-Apr-23 20:30N 55°12' E 014°24'5 9.7
2018-Apr-23 20:00N 55°08' E 014°18'5 9.8
2018-Apr-23 19:30N 55°05' E 014°13'5 9.5
2018-Apr-23 18:56N 55°01' E 014°06'1710.0
2018-Apr-23 17:12N 54°55' E 013°38'34 9.8
2018-Apr-23 13:43N 54°44' E 012°42'2410.7
2018-Apr-23 11:30N 54°27' E 012°12'612.1
2018-Apr-23 11:01N 54°25' E 012°03'714.0
2018-Apr-23 10:30N 54°25' E 011°51'713.5
2018-Apr-23 10:00N 54°27' E 011°40'714.3
2018-Apr-23 09:30N 54°30' E 011°29'713.9
2018-Apr-23 09:00N 54°33' E 011°18'713.7
2018-Apr-23 08:31N 54°36' E 011°08'713.6
2018-Apr-23 08:00N 54°40' E 010°58'611.8
2018-Apr-23 07:30N 54°44' E 010°51'510.8
2018-Apr-23 07:00N 54°50' E 010°51'611.8
2018-Apr-23 06:30N 54°55' E 010°54'611.2
2018-Apr-23 06:01N 54°59' E 011°00'612.7
2018-Apr-23 05:30N 55°06' E 011°02'612.0
2018-Apr-23 05:01N 55°11' E 011°05'612.1
2018-Apr-23 04:29N 55°18' E 011°03'45 9.8
2018-Apr-22 23:52N 56°03' E 011°06'11 9.7
2018-Apr-22 22:47N 56°11' E 011°17'3 9.1
2018-Apr-22 22:30N 56°14' E 011°19'5 8.9
2018-Apr-22 21:56N 56°18' E 011°23'16 9.2
2018-Apr-22 20:08N 56°32' E 011°38'2 8.8
2018-Apr-22 19:54N 56°34' E 011°40'4 9.1
2018-Apr-22 19:31N 56°37' E 011°44'5 9.3
2018-Apr-22 19:01N 56°41' E 011°48'5 9.0
2018-Apr-22 18:30N 56°45' E 011°52'5 9.1
2018-Apr-22 18:00N 56°49' E 011°50'4 9.0
2018-Apr-22 17:31N 56°54' E 011°47'4 8.9
2018-Apr-22 17:00N 56°58' E 011°44'4 8.5
2018-Apr-22 16:30N 57°02' E 011°42'4 8.3
2018-Apr-22 16:01N 57°06' E 011°39'4 8.4
2018-Apr-22 15:30N 57°10' E 011°36'5 8.7
2018-Apr-22 14:59N 57°14' E 011°33'4 9.0
2018-Apr-22 14:30N 57°18' E 011°31'4 8.9
2018-Apr-22 14:01N 57°22' E 011°28'4 8.8
2018-Apr-22 13:30N 57°26' E 011°25'4 8.5
2018-Apr-22 13:01N 57°30' E 011°20'4 8.6
2018-Apr-22 12:30N 57°33' E 011°14'3 5.5
2018-Apr-22 12:01N 57°34' E 011°11'3 5.2
2018-Apr-22 11:31N 57°36' E 011°07'3 5.3
2018-Apr-22 11:01N 57°38' E 011°03'3 5.4
2018-Apr-22 10:31N 57°40' E 010°59'3 6.0
2018-Apr-22 10:01N 57°42' E 010°55'3 6.1
2018-Apr-22 09:31N 57°44' E 010°51'3 6.8
2018-Apr-22 09:00N 57°46' E 010°47'3 6.7
2018-Apr-22 08:30N 57°47' E 010°41'3 6.0
2018-Apr-22 08:00N 57°47' E 010°35'3 6.2
2018-Apr-22 07:30N 57°48' E 010°29'510.7
2018-Apr-22 07:00N 57°48' E 010°19'814.9
2018-Apr-22 06:29N 57°48' E 010°05'714.0
2018-Apr-22 06:00N 57°47' E 009°52'510.5
2018-Apr-22 05:30N 57°45' E 009°43'510.3
2018-Apr-22 04:59N 57°44' E 009°34'1010.2
2018-Apr-22 04:02N 57°40' E 009°17'1510.5
2018-Apr-22 02:39N 57°36' E 008°50'144 8.5
2018-Apr-21 09:47N 55°40' E 006°17'2 7.4
2018-Apr-21 09:29N 55°38' E 006°15'5 9.7
2018-Apr-21 08:57N 55°33' E 006°10'4 9.7
2018-Apr-21 08:30N 55°30' E 006°06'510.0
2018-Apr-21 08:00N 55°25' E 006°01'713.5
2018-Apr-21 07:30N 55°20' E 005°55'96 9.8
2018-Apr-20 21:40N 53°55' E 004°36'310.0
2018-Apr-20 21:24N 53°53' E 004°33'3010.1
2018-Apr-20 18:28N 53°34' E 003°55'6 9.9
2018-Apr-20 17:50N 53°31' E 003°46'710.1
2018-Apr-20 17:09N 53°24' E 003°41'33 9.5
2018-Apr-20 13:41N 52°54' E 003°20'2 9.0
2018-Apr-20 13:30N 52°52' E 003°19'6 8.9
2018-Apr-20 12:51N 52°47' E 003°14'4 8.6
2018-Apr-20 12:24N 52°44' E 003°11'4 8.3
2018-Apr-20 11:52N 52°40' E 003°09'8 8.2
2018-Apr-20 10:51N 52°31' E 003°09'3 8.3
2018-Apr-20 10:30N 52°28' E 003°09'4 8.5
2018-Apr-20 10:00N 52°24' E 003°09'4 8.8
2018-Apr-20 09:31N 52°20' E 003°09'4 8.0
2018-Apr-20 08:59N 52°16' E 003°12'4 9.5
2018-Apr-20 08:30N 52°14' E 003°18'5 9.6
2018-Apr-20 07:59N 52°11' E 003°25'5 9.9
2018-Apr-20 07:29N 52°09' E 003°32'5 9.8
2018-Apr-20 07:00N 52°06' E 003°39'5 9.4
2018-Apr-20 06:31N 52°04' E 003°45'4 8.7
2018-Apr-20 06:00N 52°03' E 003°52'4 8.8
2018-Apr-20 05:31N 52°01' E 003°59'5 9.9
2018-Apr-20 05:01N 51°58' E 004°05'1 1.1
2018-Apr-20 04:29N 51°58' E 004°04'0 0.0
2018-Apr-20 03:59N 51°58' E 004°04'0 0.0
2018-Apr-20 03:29N 51°58' E 004°04'0 0.0
2018-Apr-20 02:59N 51°58' E 004°04'0 0.0
2018-Apr-20 02:29N 51°58' E 004°04'0 0.0
2018-Apr-20 01:59N 51°58' E 004°04'0 0.0
2018-Apr-20 01:29N 51°58' E 004°04'0 0.0
2018-Apr-20 00:59N 51°58' E 004°04'0 0.0
2018-Apr-20 00:29N 51°58' E 004°04'0 0.0
2018-Apr-19 23:59N 51°58' E 004°04'0 0.0
2018-Apr-19 23:23N 51°58' E 004°04'0 0.0
2018-Apr-19 22:59N 51°58' E 004°04'0 0.0
2018-Apr-19 22:26N 51°58' E 004°04'0 0.0
2018-Apr-19 21:59N 51°58' E 004°04'0 0.0
2018-Apr-19 21:26N 51°58' E 004°04'0 0.0
2018-Apr-19 20:59N 51°58' E 004°04'0 0.0
2018-Apr-19 20:29N 51°58' E 004°04'0 0.0
2018-Apr-19 19:59N 51°58' E 004°04'0 0.0
2018-Apr-19 19:29N 51°58' E 004°04'0 0.0
2018-Apr-19 18:53N 51°58' E 004°04'0 0.0
2018-Apr-19 18:29N 51°58' E 004°04'0 0.0
2018-Apr-19 17:59N 51°58' E 004°04'0 0.0
2018-Apr-19 17:26N 51°58' E 004°04'0 0.0
2018-Apr-19 16:59N 51°58' E 004°04'0 0.0
2018-Apr-19 16:29N 51°58' E 004°04'0 0.0
2018-Apr-19 15:59N 51°58' E 004°04'0 0.0
2018-Apr-19 15:29N 51°58' E 004°04'0 0.0
2018-Apr-19 14:56N 51°58' E 004°04'0 0.0
2018-Apr-19 14:29N 51°58' E 004°04'0 0.0
2018-Apr-19 13:56N 51°58' E 004°04'0 0.0
2018-Apr-19 13:29N 51°58' E 004°04'0 0.0
2018-Apr-19 12:59N 51°58' E 004°04'0 0.0
2018-Apr-19 12:29N 51°58' E 004°04'0 0.0
2018-Apr-19 11:56N 51°58' E 004°04'0 0.0
2018-Apr-19 11:29N 51°58' E 004°04'0 0.0
2018-Apr-19 10:59N 51°58' E 004°04'0 0.0
2018-Apr-19 10:29N 51°58' E 004°04'0 0.0
2018-Apr-19 09:59N 51°58' E 004°04'0 0.0
2018-Apr-19 09:29N 51°58' E 004°04'0 0.0
2018-Apr-19 08:59N 51°58' E 004°04'0 0.0
2018-Apr-19 08:29N 51°58' E 004°04'0 0.0
2018-Apr-19 07:59N 51°58' E 004°04'0 0.0
2018-Apr-19 07:26N 51°58' E 004°04'0 0.0
2018-Apr-19 06:59N 51°58' E 004°04'0 0.0
2018-Apr-19 06:29N 51°58' E 004°04'0 0.0
2018-Apr-19 05:59N 51°58' E 004°04'0 0.0
2018-Apr-19 05:29N 51°58' E 004°04'0 0.0
2018-Apr-19 04:56N 51°58' E 004°04'0 0.0
2018-Apr-19 04:29N 51°58' E 004°04'0 0.0
2018-Apr-19 03:59N 51°58' E 004°04'0 0.0
2018-Apr-19 03:29N 51°58' E 004°04'0 0.0
2018-Apr-19 02:59N 51°58' E 004°04'0 0.0
2018-Apr-19 02:29N 51°58' E 004°04'0 0.0
2018-Apr-19 01:59N 51°58' E 004°04'0 0.0
2018-Apr-19 01:26N 51°58' E 004°04'0 0.0
2018-Apr-19 00:59N 51°58' E 004°04'0 0.0
2018-Apr-19 00:29N 51°58' E 004°04'0 0.1
2018-Apr-19 00:00N 51°58' E 004°04'1 1.3
2018-Apr-18 23:30N 51°59' E 004°05'4 7.8
2018-Apr-18 23:00N 52°00' E 003°59'510.1
2018-Apr-18 22:30N 51°60' E 003°51'4 7.6
2018-Apr-18 22:00N 52°01' E 003°45'611.8
2018-Apr-18 21:30N 52°05' E 003°37'612.1
2018-Apr-18 20:59N 52°08' E 003°29'712.4
2018-Apr-18 20:26N 52°11' E 003°19'612.5
2018-Apr-18 19:59N 52°15' E 003°12'1011.8
2018-Apr-18 19:07N 52°25' E 003°09'612.0
2018-Apr-18 18:36N 52°31' E 003°09'211.7
2018-Apr-18 18:28N 52°32' E 003°09'511.4
2018-Apr-18 18:00N 52°38' E 003°09'811.3
2018-Apr-18 17:16N 52°46' E 003°09'310.6
2018-Apr-18 17:00N 52°49' E 003°10'710.9
2018-Apr-18 16:21N 52°55' E 003°15'23811.8
2018-Apr-17 20:13N 56°22' E 006°36'311.7
2018-Apr-17 20:00N 56°25' E 006°38'611.7
2018-Apr-17 19:29N 56°30' E 006°43'611.7
2018-Apr-17 18:56N 56°36' E 006°48'13211.2
2018-Apr-17 07:14N 57°51' E 010°09'612.6
2018-Apr-17 06:45N 57°51' E 010°20'412.4
2018-Apr-17 06:24N 57°51' E 010°28'512.3
2018-Apr-17 06:00N 57°50' E 010°37'511.0
2018-Apr-17 05:30N 57°48' E 010°46'4 7.7
2018-Apr-17 05:00N 57°45' E 010°51'510.9
2018-Apr-17 04:30N 57°41' E 010°59'611.8
2018-Apr-17 04:00N 57°37' E 011°07'612.0
2018-Apr-17 03:30N 57°33' E 011°15'612.0
2018-Apr-17 03:00N 57°29' E 011°24'612.1
2018-Apr-17 02:30N 57°24' E 011°28'612.7
2018-Apr-17 02:00N 57°18' E 011°32'612.7
2018-Apr-17 01:30N 57°12' E 011°36'612.5
2018-Apr-17 01:00N 57°06' E 011°40'10610.6
2018-Apr-16 15:00N 55°22' E 011°02'611.8
2018-Apr-16 14:30N 55°17' E 011°04'510.2
2018-Apr-16 14:00N 55°11' E 011°04'511.0
2018-Apr-16 13:30N 55°07' E 010°59'611.6
2018-Apr-16 13:00N 55°01' E 010°59'510.9
2018-Apr-16 12:30N 54°57' E 010°54'611.5
2018-Apr-16 12:00N 54°51' E 010°50'611.7
2018-Apr-16 11:30N 54°45' E 010°48'510.6
2018-Apr-16 11:00N 54°40' E 010°48'612.2
2018-Apr-16 10:30N 54°37' E 010°57'611.7
2018-Apr-16 10:00N 54°36' E 011°07'612.3
2018-Apr-16 09:30N 54°34' E 011°17'612.5
2018-Apr-16 09:00N 54°31' E 011°27'712.6
2018-Apr-16 08:28N 54°28' E 011°38'612.2
2018-Apr-16 08:00N 54°26' E 011°47'712.4
2018-Apr-16 07:28N 54°27' E 011°58'612.2
2018-Apr-16 07:00N 54°27' E 012°08'510.2
2018-Apr-16 06:30N 54°31' E 012°13'810.9
2018-Apr-16 05:46N 54°38' E 012°20'2 9.5
2018-Apr-16 05:30N 54°39' E 012°23'16 5.3
2018-Apr-16 02:26N 54°47' E 012°47'25 9.8
2018-Apr-15 23:51N 54°56' E 013°28'711.9
2018-Apr-15 23:17N 54°59' E 013°40'1312.0
2018-Apr-15 22:10N 55°03' E 014°02'212.0
2018-Apr-15 22:00N 55°04' E 014°05'912.3
2018-Apr-15 21:17N 55°11' E 014°14'312.4
2018-Apr-15 21:00N 55°14' E 014°18'612.4
2018-Apr-15 20:30N 55°19' E 014°25'612.6
2018-Apr-15 20:00N 55°24' E 014°32'612.0
2018-Apr-15 19:28N 55°28' E 014°40'612.2
2018-Apr-15 19:00N 55°31' E 014°49'612.2
2018-Apr-15 18:30N 55°33' E 014°59'612.4
2018-Apr-15 18:00N 55°36' E 015°08'612.5
2018-Apr-15 17:30N 55°38' E 015°19'612.5
2018-Apr-15 17:00N 55°40' E 015°29'612.6
2018-Apr-15 16:30N 55°41' E 015°40'612.3
2018-Apr-15 16:00N 55°43' E 015°51'612.3
2018-Apr-15 15:30N 55°44' E 016°02'612.3
2018-Apr-15 15:00N 55°46' E 016°12'612.3
2018-Apr-15 14:30N 55°47' E 016°23'612.4
2018-Apr-15 14:00N 55°49' E 016°34'812.4
2018-Apr-15 13:24N 55°51' E 016°47'512.4
2018-Apr-15 13:00N 55°52' E 016°55'28212.0
2018-Apr-14 13:26N 59°29' E 022°30'1512.4
2018-Apr-14 12:12N 59°34' E 022°59'612.5
2018-Apr-14 11:45N 59°36' E 023°09'312.6
2018-Apr-14 11:31N 59°37' E 023°15'612.5
2018-Apr-14 11:01N 59°38' E 023°27'612.4
2018-Apr-14 10:31N 59°40' E 023°39'612.5
2018-Apr-14 10:00N 59°42' E 023°51'612.5
2018-Apr-14 09:31N 59°44' E 024°02'812.5
2018-Apr-14 08:51N 59°46' E 024°18'412.6
2018-Apr-14 08:30N 59°47' E 024°26'  

Dump ship's entire track history